Hauptseite
METAR-TAF:

METAR-TAF

Flughäfen :

Katharinenkloster, Ägypten

Breite: 28-41-07N, Länge: 034-03-45E, Höhe: 1331 m

METAR: fehlend

Zeit: 21:36 (19:36 UTC)

Prognose

Neuester Wetterbericht von vor 2 Stunden und 36 Minuten, um 17:00 UTC
Gültige Prognose vom 29 um 18 UTC bis 01 um 24 UTC
Wind 10 kt aus Südwest
Sichtweite 10 km oder mehr
keine Wolken unter 1500 m und keine Kumulonimbus oder Gewitterwolken

TAF: HESC 291700Z 2918/0124 22010KT CAVOK

Wetterbeobachtungen und Prognosen von mehr als 4000 Flughäfen (METAR und TAF Bericht).

Die verfügbaren Stationen werden durch gelbe und rote Markierungen auf der Karte dargestellt.

Führen Sie die Maus auf sie, um den Namen der Station zu sehen.

Darauf klicken, um die Beobachtung von Wetterbeobachtungen und Prognosen zu sehen.

Um die Karte zu ändern : klicken Sie auf den grünen Tasten mit einem schwarzen Kreuz Zum Vergrößern, auf den grünen Button mit einem Gedankenstrich zu verkleinern, oder auf die grünen Pfeile für benachbarte Karten.


METAR-TAF: